Time;durP1;ratioP1;P1;durP2;ratioP2;P2;SDS_P1;SDS_P2;PMS_P1;PMS_P2;Temp;Humidity;BMP_temperature;BMP_pressure;BME280_temperature;BME280_humidity;BME280_pressure;Samples;Min_cycle;Max_cycle;Signal;HPM_P1;HPM_P2
2021/08/02 00:00:15;;;;;;;4.40;4.00;;;;;23.60;100121.00;;;;2049790;28;20224;-65
2021/08/02 00:01:19;;;;;;;4.10;3.70;;;;;23.60;100127.00;;;;2051145;28;20215;-66
2021/08/02 00:02:28;;;;;;;4.78;4.38;;;;;23.60;100132.00;;;;2059760;28;20702;-66
2021/08/02 00:03:30;;;;;;;4.38;3.97;;;;;23.60;100133.00;;;;2061930;28;20543;-67
2021/08/02 00:04:51;;;;;;;4.50;4.10;;;;;23.60;100130.00;;;;2059667;28;20231;-65
2021/08/02 00:05:53;;;;;;;4.22;3.83;;;;;23.60;100136.00;;;;2059013;28;20215;-66
2021/08/02 00:06:56;;;;;;;4.85;3.80;;;;;23.60;100130.00;;;;2049778;28;20693;-66
2021/08/02 00:07:57;;;;;;;4.57;3.88;;;;;23.60;100133.00;;;;2050653;28;20215;-66
2021/08/02 00:09:05;;;;;;;4.75;4.25;;;;;23.60;100134.00;;;;2059223;28;20223;-65
2021/08/02 00:10:13;;;;;;;3.90;3.55;;;;;23.60;100132.00;;;;2059820;28;20578;-65
2021/08/02 00:11:14;;;;;;;3.63;3.33;;;;;23.50;100124.00;;;;2058909;28;20218;-66
2021/08/02 00:12:18;;;;;;;4.50;4.10;;;;;23.60;100127.00;;;;2058895;28;20249;-66
2021/08/02 00:13:31;;;;;;;4.50;4.10;;;;;23.60;100131.00;;;;2049177;28;20463;-66
2021/08/02 00:14:31;;;;;;;4.35;3.95;;;;;23.60;100131.00;;;;2066756;28;20215;-65
2021/08/02 00:15:32;;;;;;;4.50;4.10;;;;;23.60;100119.00;;;;2067768;28;20302;-65
2021/08/02 00:16:33;;;;;;;4.30;3.90;;;;;23.60;100133.00;;;;2058929;28;20219;-66
2021/08/02 00:17:34;;;;;;;4.32;3.70;;;;;23.60;100132.00;;;;2058484;28;20253;-65
2021/08/02 00:18:34;;;;;;;3.83;3.53;;;;;23.60;100135.00;;;;2066990;28;20221;-66
2021/08/02 00:19:34;;;;;;;4.20;3.80;;;;;23.60;100128.00;;;;2067038;28;20217;-65
2021/08/02 00:20:35;;;;;;;4.67;3.40;;;;;23.60;100132.00;;;;2066429;28;20297;-66
2021/08/02 00:21:35;;;;;;;3.90;3.60;;;;;23.60;100134.00;;;;2067655;28;20207;-65
2021/08/02 00:22:36;;;;;;;3.87;3.57;;;;;23.60;100135.00;;;;2067072;28;20678;-66
2021/08/02 00:23:36;;;;;;;4.23;3.80;;;;;23.60;100135.00;;;;2067275;28;20311;-65
2021/08/02 00:24:37;;;;;;;3.90;3.60;;;;;23.60;100132.00;;;;2066959;28;20224;-66
2021/08/02 00:25:37;;;;;;;3.60;3.03;;;;;23.60;100139.00;;;;2066590;28;20210;-66
2021/08/02 00:26:38;;;;;;;3.30;3.00;;;;;23.60;100136.00;;;;2066465;28;20210;-65
2021/08/02 00:27:38;;;;;;;3.90;3.37;;;;;23.60;100138.00;;;;2057899;28;20600;-66
2021/08/02 00:28:39;;;;;;;3.57;3.27;;;;;23.50;100140.00;;;;2040021;28;20476;-65
2021/08/02 00:29:39;;;;;;;3.20;2.90;;;;;23.50;100143.00;;;;2052893;28;20223;-65
2021/08/02 00:30:40;;;;;;;3.17;2.87;;;;;23.50;100135.00;;;;2049298;28;20258;-66
2021/08/02 00:31:40;;;;;;;4.33;3.10;;;;;23.60;100143.00;;;;2060244;28;20710;-66
2021/08/02 00:32:40;;;;;;;3.10;2.80;;;;;23.60;100141.00;;;;2068501;28;20236;-66
2021/08/02 00:33:41;;;;;;;4.10;2.90;;;;;23.60;100145.00;;;;2067026;28;20209;-66
2021/08/02 00:34:41;;;;;;;3.20;3.00;;;;;23.50;100143.00;;;;2066480;28;20210;-66
2021/08/02 00:35:54;;;;;;;3.17;2.87;;;;;23.50;100144.00;;;;2066494;28;20210;-65
2021/08/02 00:37:04;;;;;;;2.75;2.55;;;;;23.50;100142.00;;;;2058620;28;20686;-65
2021/08/02 00:38:08;;;;;;;3.30;2.65;;;;;23.60;100141.00;;;;2056373;28;20657;-65
2021/08/02 00:39:22;;;;;;;2.60;2.40;;;;;23.50;100142.00;;;;2060213;28;20270;-65
2021/08/02 00:40:45;;;;;;;3.00;2.70;;;;;23.50;100137.00;;;;2050833;28;20212;-67
2021/08/02 00:42:07;;;;;;;3.08;2.75;;;;;23.50;100145.00;;;;2047101;28;20227;-66
2021/08/02 00:43:24;;;;;;;3.30;3.00;;;;;23.50;100147.00;;;;2055965;28;20779;-66
2021/08/02 00:44:57;;;;;;;4.00;2.80;;;;;23.50;100136.00;;;;2051867;28;20219;-66
2021/08/02 00:45:58;;;;;;;3.08;2.75;;;;;23.50;100146.00;;;;2049178;28;20223;-66
2021/08/02 00:47:02;;;;;;;3.13;2.70;;;;;23.50;100141.00;;;;2044299;29;20257;-66
2021/08/02 00:48:10;;;;;;;3.03;2.30;;;;;23.50;100145.00;;;;2045494;28;20224;-65
2021/08/02 00:49:11;;;;;;;2.78;2.58;;;;;23.50;100145.00;;;;2060343;28;20752;-65
2021/08/02 00:50:22;;;;;;;2.73;2.53;;;;;23.50;100143.00;;;;2043539;29;20288;-65
2021/08/02 00:51:22;;;;;;;3.22;2.65;;;;;23.50;100145.00;;;;2046918;28;20220;-65
2021/08/02 00:52:25;;;;;;;2.40;2.20;;;;;23.50;100146.00;;;;2060492;28;20214;-66
2021/08/02 00:53:27;;;;;;;3.15;2.33;;;;;23.50;100153.00;;;;2042521;28;20229;-65
2021/08/02 00:54:27;;;;;;;3.67;2.50;;;;;23.50;100142.00;;;;2052364;28;20367;-66
2021/08/02 00:55:29;;;;;;;2.80;2.10;;;;;23.50;100139.00;;;;2060774;28;20270;-65
2021/08/02 00:56:30;;;;;;;2.92;2.50;;;;;23.50;100147.00;;;;2061051;28;20218;-66
2021/08/02 00:57:33;;;;;;;2.90;2.13;;;;;23.50;100144.00;;;;2060362;28;20214;-66
2021/08/02 00:58:34;;;;;;;3.05;2.45;;;;;23.50;100152.00;;;;2060174;28;20227;-65
2021/08/02 00:59:34;;;;;;;2.67;2.10;;;;;23.50;100144.00;;;;2043399;29;20665;-66
2021/08/02 01:00:34;;;;;;;2.37;2.13;;;;;23.50;100146.00;;;;2035445;29;20280;-66
2021/08/02 01:01:36;;;;;;;6.70;2.20;;;;;23.50;100145.00;;;;2054938;28;20238;-66
2021/08/02 01:02:40;;;;;;;3.85;2.38;;;;;23.50;100148.00;;;;2055365;28;20246;-66
2021/08/02 01:03:40;;;;;;;4.22;2.58;;;;;23.50;100149.00;;;;2047462;28;20241;-65
2021/08/02 01:04:41;;;;;;;3.30;2.10;;;;;23.50;100142.00;;;;2060592;28;20211;-65
2021/08/02 01:05:42;;;;;;;2.40;2.20;;;;;23.50;100145.00;;;;2044580;29;20259;-65
2021/08/02 01:06:42;;;;;;;1.98;1.85;;;;;23.50;100138.00;;;;2042114;29;20326;-65
2021/08/02 01:07:45;;;;;;;2.53;2.33;;;;;23.50;100138.00;;;;2043625;29;20220;-65
2021/08/02 01:08:47;;;;;;;2.50;2.30;;;;;23.50;100134.00;;;;2043975;28;20323;-66
2021/08/02 01:09:47;;;;;;;1.80;1.70;;;;;23.50;100145.00;;;;2044176;29;20197;-66
2021/08/02 01:10:53;;;;;;;3.77;2.03;;;;;23.50;100144.00;;;;2043889;28;20237;-65
2021/08/02 01:11:54;;;;;;;2.13;1.90;;;;;23.50;100140.00;;;;2045174;28;20247;-65
2021/08/02 01:12:55;;;;;;;2.60;2.40;;;;;23.50;100138.00;;;;2044492;28;20216;-66
2021/08/02 01:13:55;;;;;;;2.88;2.00;;;;;23.50;100141.00;;;;2043499;29;20216;-66
2021/08/02 01:14:56;;;;;;;1.90;1.80;;;;;23.50;100135.00;;;;2043657;29;20307;-66
2021/08/02 01:15:58;;;;;;;1.90;1.80;;;;;23.50;100138.00;;;;2051715;28;20258;-66
2021/08/02 01:16:59;;;;;;;2.03;1.90;;;;;23.40;100140.00;;;;2051882;28;20220;-66
2021/08/02 01:17:59;;;;;;;2.83;2.00;;;;;23.50;100136.00;;;;2059185;28;20243;-66
2021/08/02 01:19:00;;;;;;;2.13;1.93;;;;;23.50;100136.00;;;;2052221;28;20251;-65
2021/08/02 01:20:02;;;;;;;3.20;2.40;;;;;23.50;100135.00;;;;2044370;29;20228;-66
2021/08/02 01:21:07;;;;;;;2.08;1.88;;;;;23.50;100135.00;;;;2052025;28;20224;-65
2021/08/02 01:22:12;;;;;;;1.90;1.80;;;;;23.50;100138.00;;;;2060146;28;20231;-66
2021/08/02 01:23:14;;;;;;;2.15;1.88;;;;;23.50;100134.00;;;;2049984;28;20212;-65
2021/08/02 01:24:14;;;;;;;2.40;1.83;;;;;23.50;100136.00;;;;2051997;28;20212;-65
2021/08/02 01:25:33;;;;;;;2.10;1.73;;;;;23.50;100136.00;;;;2050455;28;20212;-66
2021/08/02 01:26:43;;;;;;;2.80;2.17;;;;;23.50;100134.00;;;;2053916;28;20246;-66
2021/08/02 01:27:46;;;;;;;1.77;1.67;;;;;23.50;100134.00;;;;2059785;28;20215;-65
2021/08/02 01:29:25;;;;;;;3.15;1.88;;;;;23.50;100139.00;;;;2060474;28;20227;-65
2021/08/02 01:30:25;;;;;;;2.47;2.08;;;;;23.40;100133.00;;;;2059087;28;20211;-66
2021/08/02 01:31:25;;;;;;;2.10;1.80;;;;;23.50;100138.00;;;;2063154;28;20215;-66
2021/08/02 01:32:26;;;;;;;2.13;1.40;;;;;23.50;100148.00;;;;2061351;28;20213;-66
2021/08/02 01:33:30;;;;;;;3.00;1.73;;;;;23.40;100146.00;;;;2055605;28;20218;-66
2021/08/02 01:34:31;;;;;;;2.45;2.20;;;;;23.40;100140.00;;;;2052387;28;20212;-65
2021/08/02 01:35:31;;;;;;;2.00;1.80;;;;;23.40;100143.00;;;;2051450;28;20336;-65
2021/08/02 01:36:31;;;;;;;2.00;1.87;;;;;23.40;100147.00;;;;2051010;28;20231;-65
2021/08/02 01:37:32;;;;;;;2.00;1.70;;;;;23.40;100138.00;;;;2059632;28;20223;-65
2021/08/02 01:38:33;;;;;;;2.47;1.70;;;;;23.40;100140.00;;;;2050847;28;20719;-66
2021/08/02 01:39:34;;;;;;;1.80;1.65;;;;;23.50;100140.00;;;;2051365;28;20231;-65
2021/08/02 01:40:34;;;;;;;2.27;1.70;;;;;23.50;100138.00;;;;2060028;28;20211;-66
2021/08/02 01:41:34;;;;;;;2.10;1.63;;;;;23.40;100146.00;;;;2060577;28;20970;-65
2021/08/02 01:42:36;;;;;;;3.27;1.70;;;;;23.40;100149.00;;;;2060730;28;20704;-67
2021/08/02 01:43:36;;;;;;;1.90;1.70;;;;;23.40;100149.00;;;;2060473;28;20301;-65
2021/08/02 01:44:36;;;;;;;1.83;1.60;;;;;23.40;100147.00;;;;2059939;28;20801;-66
2021/08/02 01:45:58;;;;;;;1.60;1.50;;;;;23.40;100147.00;;;;2060020;28;20269;-65
2021/08/02 01:47:08;;;;;;;1.98;1.77;;;;;23.40;100142.00;;;;2051026;28;20620;-65
2021/08/02 01:48:11;;;;;;;2.25;2.05;;;;;23.40;100145.00;;;;2044507;28;20287;-67
2021/08/02 01:49:50;;;;;;;1.58;1.48;;;;;23.40;100149.00;;;;2044576;28;20595;-65
2021/08/02 01:51:16;;;;;;;1.80;1.58;;;;;23.40;100151.00;;;;2042899;28;20227;-65
2021/08/02 01:52:19;;;;;;;1.73;1.58;;;;;23.40;100146.00;;;;2059254;28;20215;-65
2021/08/02 01:53:25;;;;;;;3.03;1.65;;;;;23.40;100154.00;;;;2043364;29;20212;-65
2021/08/02 01:54:54;;;;;;;1.60;1.50;;;;;23.40;100152.00;;;;2045285;28;20221;-66
2021/08/02 01:55:59;;;;;;;2.17;1.40;;;;;23.40;100148.00;;;;2059585;28;20217;-65
2021/08/02 01:57:11;;;;;;;1.58;1.48;;;;;23.40;100153.00;;;;2051429;28;20243;-65
2021/08/02 01:58:11;;;;;;;1.75;1.60;;;;;23.40;100140.00;;;;2045308;28;20216;-65
2021/08/02 01:59:14;;;;;;;1.87;1.60;;;;;23.40;100155.00;;;;2043374;29;20216;-65
2021/08/02 02:00:15;;;;;;;2.40;1.60;;;;;23.40;100157.00;;;;2043548;28;20303;-66
2021/08/02 02:01:16;;;;;;;2.03;1.83;;;;;23.40;100153.00;;;;2060506;28;20211;-66
2021/08/02 02:02:17;;;;;;;1.60;1.50;;;;;23.40;100148.00;;;;2058038;28;20215;-66
2021/08/02 02:03:25;;;;;;;2.17;1.70;;;;;23.40;100149.00;;;;2048276;28;20765;-65
2021/08/02 02:04:29;;;;;;;2.42;1.80;;;;;23.40;100153.00;;;;2051187;28;20306;-65
2021/08/02 02:05:34;;;;;;;2.17;1.60;;;;;23.40;100148.00;;;;2051791;28;20643;-65
2021/08/02 02:06:37;;;;;;;1.95;1.60;;;;;23.40;100152.00;;;;2051131;28;20250;-65
2021/08/02 02:07:42;;;;;;;1.92;1.60;;;;;23.40;100156.00;;;;2044415;28;20236;-65
2021/08/02 02:08:46;;;;;;;1.73;1.55;;;;;23.40;100157.00;;;;2044708;28;20228;-65
2021/08/02 02:09:46;;;;;;;1.83;1.60;;;;;23.40;100149.00;;;;2044192;28;20208;-65
2021/08/02 02:10:49;;;;;;;1.90;1.70;;;;;23.40;100147.00;;;;2047031;29;20220;-65
2021/08/02 02:11:49;;;;;;;1.90;1.70;;;;;23.30;100153.00;;;;2039311;29;21067;-65
2021/08/02 02:12:49;;;;;;;3.53;1.77;;;;;23.30;100158.00;;;;2038668;29;20221;-65
2021/08/02 02:13:53;;;;;;;2.97;1.80;;;;;23.40;100160.00;;;;2031545;29;20217;-65
2021/08/02 02:14:53;;;;;;;1.52;1.42;;;;;23.40;100152.00;;;;2040092;28;20238;-65
2021/08/02 02:15:55;;;;;;;3.30;1.50;;;;;23.40;100147.00;;;;2051617;28;20247;-65
2021/08/02 02:16:56;;;;;;;1.90;1.50;;;;;23.40;100149.00;;;;2055612;28;20237;-65
2021/08/02 02:17:57;;;;;;;1.27;1.17;;;;;23.40;100146.00;;;;2051963;28;20215;-65
2021/08/02 02:19:02;;;;;;;1.60;1.50;;;;;23.40;100151.00;;;;2046090;29;20222;-65
2021/08/02 02:20:03;;;;;;;2.35;1.75;;;;;23.40;100151.00;;;;2043663;29;20780;-66
2021/08/02 02:21:04;;;;;;;2.07;1.50;;;;;23.40;100152.00;;;;2051272;28;20212;-65
2021/08/02 02:22:04;;;;;;;1.70;1.30;;;;;23.40;100150.00;;;;2052025;28;20822;-65
2021/08/02 02:23:04;;;;;;;1.77;1.60;;;;;23.40;100156.00;;;;2051928;28;20287;-65
2021/08/02 02:24:05;;;;;;;3.30;1.60;;;;;23.40;100155.00;;;;2044025;29;20823;-65
2021/08/02 02:25:10;;;;;;;1.90;1.60;;;;;23.40;100167.00;;;;2051254;28;20699;-65
2021/08/02 02:26:11;;;;;;;1.60;1.50;;;;;23.40;100153.00;;;;2059228;28;20346;-65
2021/08/02 02:27:11;;;;;;;1.63;1.50;;;;;23.40;100162.00;;;;2043122;29;20427;-65
2021/08/02 02:28:12;;;;;;;2.03;1.17;;;;;23.40;100159.00;;;;2027324;29;20225;-65
2021/08/02 02:29:14;;;;;;;2.20;1.50;;;;;23.40;100159.00;;;;2046749;28;20224;-66
2021/08/02 02:30:14;;;;;;;2.22;1.40;;;;;23.30;100164.00;;;;2042853;29;20277;-66
2021/08/02 02:31:14;;;;;;;2.13;1.47;;;;;23.40;100165.00;;;;2043782;28;20271;-66
2021/08/02 02:32:14;;;;;;;1.90;1.67;;;;;23.40;100169.00;;;;2040714;28;20221;-65
2021/08/02 02:33:15;;;;;;;1.73;1.30;;;;;23.30;100168.00;;;;2040053;29;20217;-65
2021/08/02 02:34:16;;;;;;;1.90;1.67;;;;;23.30;100169.00;;;;2050240;28;20212;-65
2021/08/02 02:35:17;;;;;;;1.93;1.47;;;;;23.40;100173.00;;;;2044869;28;20448;-65
2021/08/02 02:36:18;;;;;;;2.53;1.60;;;;;23.30;100176.00;;;;2043151;28;21050;-66
2021/08/02 02:37:24;;;;;;;1.40;1.30;;;;;23.40;100169.00;;;;2043567;29;20528;-66
2021/08/02 02:38:24;;;;;;;2.55;1.35;;;;;23.40;100172.00;;;;2044278;28;20213;-65
2021/08/02 02:39:26;;;;;;;2.40;1.60;;;;;23.30;100176.00;;;;2044478;28;20564;-65
2021/08/02 02:40:26;;;;;;;4.20;1.60;;;;;23.30;100180.00;;;;2042354;29;20227;-66
2021/08/02 02:41:26;;;;;;;2.60;1.30;;;;;23.30;100172.00;;;;2042475;29;20224;-65
2021/08/02 02:42:27;;;;;;;1.80;1.60;;;;;23.30;100183.00;;;;2050431;28;20273;-65
2021/08/02 02:43:27;;;;;;;3.83;1.50;;;;;23.30;100180.00;;;;2034725;29;20590;-64
2021/08/02 02:44:27;;;;;;;3.60;1.27;;;;;23.30;100162.00;;;;2034700;29;20747;-65
2021/08/02 02:45:28;;;;;;;1.40;1.30;;;;;23.40;100167.00;;;;2043183;28;20689;-66
2021/08/02 02:46:28;;;;;;;2.00;1.40;;;;;23.30;100170.00;;;;2051733;28;20282;-66
2021/08/02 02:47:29;;;;;;;1.67;1.53;;;;;23.30;100177.00;;;;2051556;28;20242;-65
2021/08/02 02:48:29;;;;;;;1.43;1.33;;;;;23.30;100170.00;;;;2043460;29;20216;-65
2021/08/02 02:49:29;;;;;;;1.93;1.20;;;;;23.30;100168.00;;;;2042794;29;20240;-65
2021/08/02 02:50:30;;;;;;;1.83;1.30;;;;;23.30;100170.00;;;;2050289;28;20215;-65
2021/08/02 02:51:30;;;;;;;1.57;1.20;;;;;23.30;100169.00;;;;2042769;29;20235;-65
2021/08/02 02:52:31;;;;;;;2.33;1.40;;;;;23.40;100155.00;;;;2035150;29;20217;-65
2021/08/02 02:53:31;;;;;;;1.67;1.40;;;;;23.30;100171.00;;;;2040859;29;21171;-65
2021/08/02 02:54:32;;;;;;;1.57;1.43;;;;;23.30;100164.00;;;;2048113;28;20759;-65
2021/08/02 02:55:33;;;;;;;1.40;1.30;;;;;23.30;100170.00;;;;2043693;29;20850;-65
2021/08/02 02:56:33;;;;;;;1.70;1.33;;;;;23.30;100175.00;;;;2035989;28;20216;-65
2021/08/02 02:57:35;;;;;;;1.37;1.20;;;;;23.30;100172.00;;;;2043494;29;20209;-66
2021/08/02 02:58:36;;;;;;;2.00;1.52;;;;;23.30;100174.00;;;;2035218;29;20253;-66
2021/08/02 02:59:37;;;;;;;1.58;1.48;;;;;23.30;100169.00;;;;2034728;29;20224;-65
2021/08/02 03:00:37;;;;;;;1.47;1.37;;;;;23.30;100172.00;;;;2049703;28;20215;-66
2021/08/02 03:01:38;;;;;;;1.70;1.30;;;;;23.30;100172.00;;;;2057458;28;20247;-65
2021/08/02 03:02:39;;;;;;;1.52;1.33;;;;;23.30;100171.00;;;;2039815;29;20228;-65
2021/08/02 03:03:42;;;;;;;1.57;1.40;;;;;23.30;100171.00;;;;2046330;28;20216;-66
2021/08/02 03:04:44;;;;;;;2.00;1.52;;;;;23.30;100169.00;;;;2050863;28;20310;-65
2021/08/02 03:05:44;;;;;;;1.20;1.10;;;;;23.30;100166.00;;;;2046330;29;20251;-65
2021/08/02 03:06:45;;;;;;;1.20;1.10;;;;;23.30;100169.00;;;;2047085;28;20220;-65
2021/08/02 03:07:45;;;;;;;2.63;1.37;;;;;23.30;100168.00;;;;2047026;28;20212;-65
2021/08/02 03:08:45;;;;;;;1.40;1.17;;;;;23.30;100163.00;;;;2050747;28;20227;-65
2021/08/02 03:09:46;;;;;;;2.43;1.40;;;;;23.30;100165.00;;;;2051110;28;20212;-67
2021/08/02 03:10:48;;;;;;;1.50;1.30;;;;;23.30;100164.00;;;;2051131;28;20200;-66
2021/08/02 03:11:48;;;;;;;1.83;1.40;;;;;23.30;100169.00;;;;2051683;28;21205;-65
2021/08/02 03:12:49;;;;;;;2.63;1.30;;;;;23.30;100165.00;;;;2051582;28;20223;-66
2021/08/02 03:13:52;;;;;;;1.80;1.30;;;;;23.30;100166.00;;;;2059517;28;20887;-65
2021/08/02 03:14:53;;;;;;;1.42;1.17;;;;;23.30;100166.00;;;;2050557;28;20219;-65
2021/08/02 03:15:53;;;;;;;1.40;1.30;;;;;23.30;100170.00;;;;2051188;28;20307;-67
2021/08/02 03:16:53;;;;;;;1.30;1.10;;;;;23.30;100178.00;;;;2059273;28;20211;-65
2021/08/02 03:17:54;;;;;;;1.70;1.20;;;;;23.30;100175.00;;;;2059823;28;20274;-65
2021/08/02 03:18:54;;;;;;;1.63;1.27;;;;;23.30;100180.00;;;;2060089;28;20219;-66
2021/08/02 03:19:54;;;;;;;1.40;1.30;;;;;23.30;100180.00;;;;2060115;28;20242;-66
2021/08/02 03:20:55;;;;;;;1.47;1.27;;;;;23.30;100180.00;;;;2059693;28;20696;-65
2021/08/02 03:21:55;;;;;;;1.50;1.40;;;;;23.30;100184.00;;;;2059712;28;20234;-66
2021/08/02 03:23:03;;;;;;;1.93;1.30;;;;;23.30;100177.00;;;;2059028;28;20199;-66
2021/08/02 03:24:13;;;;;;;1.90;1.20;;;;;23.30;100185.00;;;;2042549;29;20791;-65
2021/08/02 03:25:35;;;;;;;1.50;1.40;;;;;23.30;100178.00;;;;2048495;28;20691;-65
2021/08/02 03:26:38;;;;;;;1.38;1.23;;;;;23.30;100181.00;;;;2047326;28;20223;-65
2021/08/02 03:27:58;;;;;;;2.33;1.40;;;;;23.30;100182.00;;;;2042655;29;20213;-65
2021/08/02 03:29:02;;;;;;;1.50;1.30;;;;;23.30;100180.00;;;;2047004;29;20240;-65
2021/08/02 03:30:03;;;;;;;1.40;1.30;;;;;23.30;100179.00;;;;2043196;28;20221;-66
2021/08/02 03:31:04;;;;;;;1.60;1.20;;;;;23.30;100173.00;;;;2044927;28;20670;-66
2021/08/02 03:32:14;;;;;;;1.83;1.40;;;;;23.30;100184.00;;;;2037692;29;20221;-65
2021/08/02 03:33:23;;;;;;;2.55;1.58;;;;;23.30;100197.00;;;;2045650;28;20303;-65
2021/08/02 03:34:26;;;;;;;1.95;1.33;;;;;23.30;100178.00;;;;2052255;28;20599;-65
2021/08/02 03:35:27;;;;;;;2.97;1.40;;;;;23.30;100174.00;;;;2043530;28;20228;-65
2021/08/02 03:36:27;;;;;;;1.30;1.20;;;;;23.30;100181.00;;;;2051514;28;20275;-66
2021/08/02 03:37:28;;;;;;;1.73;1.33;;;;;23.30;100170.00;;;;2051260;28;20217;-65
2021/08/02 03:38:28;;;;;;;1.50;1.23;;;;;23.30;100177.00;;;;2043020;29;20220;-66
2021/08/02 03:39:28;;;;;;;1.40;1.20;;;;;23.20;100174.00;;;;2043184;29;20240;-65
2021/08/02 03:40:28;;;;;;;1.77;1.20;;;;;23.30;100176.00;;;;2050126;28;20267;-65
2021/08/02 03:41:29;;;;;;;1.87;1.30;;;;;23.30;100176.00;;;;2042647;29;20231;-65
2021/08/02 03:42:29;;;;;;;2.27;1.37;;;;;23.30;100175.00;;;;2049823;28;20322;-65
2021/08/02 03:43:30;;;;;;;2.73;1.50;;;;;23.30;100181.00;;;;2042319;29;20216;-65
2021/08/02 03:44:31;;;;;;;1.93;1.27;;;;;23.30;100183.00;;;;2042801;28;20279;-65
2021/08/02 03:45:31;;;;;;;1.80;1.20;;;;;23.30;100172.00;;;;2059553;28;20227;-65
2021/08/02 03:46:31;;;;;;;1.40;1.30;;;;;23.30;100178.00;;;;2040927;29;20499;-66
2021/08/02 03:47:32;;;;;;;2.13;1.37;;;;;23.30;100177.00;;;;2042435;29;20219;-66
2021/08/02 03:48:32;;;;;;;2.33;1.40;;;;;23.30;100182.00;;;;2049114;28;20336;-65
2021/08/02 03:49:33;;;;;;;1.83;1.10;;;;;23.30;100177.00;;;;2049957;28;20709;-65
2021/08/02 03:50:33;;;;;;;2.23;1.20;;;;;23.30;100174.00;;;;2049647;28;20262;-66
2021/08/02 03:51:44;;;;;;;1.57;1.40;;;;;23.30;100172.00;;;;2049882;28;20212;-66
2021/08/02 03:52:47;;;;;;;1.20;1.10;;;;;23.30;100176.00;;;;2052992;28;20211;-65
2021/08/02 03:53:50;;;;;;;1.73;1.60;;;;;23.30;100181.00;;;;2059851;28;20347;-65
2021/08/02 03:54:50;;;;;;;2.40;1.05;;;;;23.30;100186.00;;;;2059341;28;20593;-65
2021/08/02 03:55:51;;;;;;;1.50;1.30;;;;;23.30;100185.00;;;;2058902;28;20234;-66
2021/08/02 03:56:51;;;;;;;1.63;1.30;;;;;23.30;100185.00;;;;2050423;28;20809;-65
2021/08/02 03:57:52;;;;;;;1.40;1.30;;;;;23.30;100191.00;;;;2050314;28;20456;-66
2021/08/02 03:58:52;;;;;;;1.90;1.23;;;;;23.30;100181.00;;;;2059318;28;20235;-65
2021/08/02 03:59:52;;;;;;;2.30;1.50;;;;;23.30;100189.00;;;;2059765;28;20204;-65
2021/08/02 04:00:53;;;;;;;1.73;1.60;;;;;23.30;100188.00;;;;2059291;28;20222;-66
2021/08/02 04:01:53;;;;;;;1.80;1.30;;;;;23.30;100191.00;;;;2056304;28;20211;-66
2021/08/02 04:02:53;;;;;;;1.93;1.27;;;;;23.20;100185.00;;;;2061576;28;20637;-65
2021/08/02 04:03:54;;;;;;;1.80;1.10;;;;;23.20;100191.00;;;;2059720;28;20235;-65
2021/08/02 04:04:54;;;;;;;2.33;1.33;;;;;23.30;100189.00;;;;2058386;28;20223;-65
2021/08/02 04:05:57;;;;;;;1.43;1.33;;;;;23.30;100182.00;;;;2058449;28;20226;-66
2021/08/02 04:06:57;;;;;;;1.48;1.15;;;;;23.20;100187.00;;;;2058332;28;20247;-66
2021/08/02 04:08:00;;;;;;;1.60;1.50;;;;;23.30;100191.00;;;;2058452;28;20207;-65
2021/08/02 04:09:01;;;;;;;6.57;1.25;;;;;23.20;100189.00;;;;2058637;28;20226;-65
2021/08/02 04:10:01;;;;;;;2.90;1.10;;;;;23.30;100190.00;;;;2058347;28;20298;-65
2021/08/02 04:11:02;;;;;;;2.73;1.27;;;;;23.30;100196.00;;;;2057818;28;20239;-65
2021/08/02 04:12:02;;;;;;;4.97;1.50;;;;;23.30;100188.00;;;;2058732;28;20346;-65
2021/08/02 04:13:03;;;;;;;1.30;1.20;;;;;23.30;100196.00;;;;2059042;28;20226;-65
2021/08/02 04:14:03;;;;;;;1.30;1.10;;;;;23.30;100197.00;;;;2059362;28;20225;-65
2021/08/02 04:15:06;;;;;;;2.17;1.40;;;;;23.30;100192.00;;;;2059264;28;20218;-65
2021/08/02 04:16:06;;;;;;;2.20;1.30;;;;;23.30;100197.00;;;;2058422;28;20288;-66
2021/08/02 04:17:06;;;;;;;3.73;1.30;;;;;23.30;100196.00;;;;2058329;28;20284;-65
2021/08/02 04:18:07;;;;;;;1.80;1.40;;;;;23.30;100195.00;;;;2056862;28;20215;-66
2021/08/02 04:19:07;;;;;;;2.17;1.23;;;;;23.20;100202.00;;;;2058562;28;20888;-65
2021/08/02 04:20:08;;;;;;;1.57;1.47;;;;;23.20;100205.00;;;;2059081;28;20223;-65
2021/08/02 04:21:08;;;;;;;2.07;1.50;;;;;23.20;100199.00;;;;2058589;28;20227;-67
2021/08/02 04:22:09;;;;;;;1.67;1.23;;;;;23.20;100204.00;;;;2054303;28;20803;-65
2021/08/02 04:23:10;;;;;;;1.77;1.17;;;;;23.20;100197.00;;;;2054709;28;20295;-65
2021/08/02 04:24:11;;;;;;;2.03;1.33;;;;;23.20;100208.00;;;;2058931;28;20644;-65
2021/08/02 04:25:11;;;;;;;1.43;1.10;;;;;23.20;100201.00;;;;2058917;28;20218;-65
2021/08/02 04:26:14;;;;;;;1.60;1.37;;;;;23.20;100197.00;;;;2058902;28;20250;-65
2021/08/02 04:27:14;;;;;;;1.50;1.40;;;;;23.30;100206.00;;;;2058991;28;20695;-65
2021/08/02 04:28:15;;;;;;;1.23;1.10;;;;;23.30;100211.00;;;;2059456;28;20277;-65
2021/08/02 04:29:15;;;;;;;1.43;1.30;;;;;23.30;100210.00;;;;2059673;28;20215;-65
2021/08/02 04:30:15;;;;;;;2.30;1.40;;;;;23.30;100209.00;;;;2059203;28;20207;-65
2021/08/02 04:31:16;;;;;;;2.20;1.40;;;;;23.30;100213.00;;;;2060723;28;20280;-65
2021/08/02 04:32:16;;;;;;;1.93;1.30;;;;;23.20;100206.00;;;;2058220;28;20251;-65
2021/08/02 04:33:17;;;;;;;1.10;1.00;;;;;23.20;100211.00;;;;2059151;28;20215;-65
2021/08/02 04:34:18;;;;;;;1.27;1.10;;;;;23.30;100210.00;;;;2060634;28;20266;-65
2021/08/02 04:35:18;;;;;;;1.33;1.00;;;;;23.30;100216.00;;;;2058103;28;20251;-65
2021/08/02 04:36:19;;;;;;;2.90;1.40;;;;;23.20;100217.00;;;;2058581;28;20247;-65
2021/08/02 04:37:19;;;;;;;2.10;1.07;;;;;23.30;100216.00;;;;2059007;28;20266;-65
2021/08/02 04:38:20;;;;;;;2.83;1.60;;;;;23.30;100213.00;;;;2059239;28;20470;-65
2021/08/02 04:39:20;;;;;;;2.00;1.30;;;;;23.30;100211.00;;;;2059228;28;20239;-66
2021/08/02 04:40:20;;;;;;;2.90;1.47;;;;;23.30;100222.00;;;;2057983;28;20214;-65
2021/08/02 04:41:21;;;;;;;1.57;1.40;;;;;23.30;100215.00;;;;2058214;28;20215;-65
2021/08/02 04:42:21;;;;;;;2.20;1.20;;;;;23.30;100223.00;;;;2058587;28;20294;-67
2021/08/02 04:43:22;;;;;;;1.40;1.30;;;;;23.30;100216.00;;;;2058275;28;20258;-65
2021/08/02 04:44:22;;;;;;;1.27;0.90;;;;;23.30;100211.00;;;;2058380;28;20689;-65
2021/08/02 04:45:23;;;;;;;3.10;1.10;;;;;23.30;100223.00;;;;2058806;28;20720;-65
2021/08/02 04:46:23;;;;;;;1.50;1.27;;;;;23.20;100218.00;;;;2059141;28;20223;-66
2021/08/02 04:47:23;;;;;;;2.10;1.30;;;;;23.20;100229.00;;;;2058851;28;20211;-65
2021/08/02 04:48:23;;;;;;;1.40;1.30;;;;;23.20;100225.00;;;;2059212;28;20262;-65
2021/08/02 04:49:24;;;;;;;1.43;1.20;;;;;23.20;100226.00;;;;2058346;28;20242;-65
2021/08/02 04:50:24;;;;;;;2.00;1.20;;;;;23.20;100221.00;;;;2057730;28;20222;-65
2021/08/02 04:51:24;;;;;;;2.33;1.30;;;;;23.20;100225.00;;;;2058088;28;20206;-65
2021/08/02 04:52:25;;;;;;;1.43;1.10;;;;;23.20;100223.00;;;;2058180;28;20239;-65
2021/08/02 04:53:25;;;;;;;1.80;1.40;;;;;23.20;100223.00;;;;2058471;28;20223;-65
2021/08/02 04:54:25;;;;;;;1.27;1.17;;;;;23.20;100225.00;;;;2059071;28;20230;-65
2021/08/02 04:55:26;;;;;;;4.10;1.20;;;;;23.30;100227.00;;;;2059188;28;20219;-65
2021/08/02 04:56:26;;;;;;;1.70;1.60;;;;;23.30;100231.00;;;;2059072;28;20262;-65
2021/08/02 04:57:26;;;;;;;1.60;1.07;;;;;23.20;100221.00;;;;2059267;28;20218;-65
2021/08/02 04:58:27;;;;;;;1.53;1.43;;;;;23.20;100227.00;;;;2058428;28;20211;-65
2021/08/02 04:59:27;;;;;;;3.27;1.40;;;;;23.20;100223.00;;;;2058216;28;20525;-65
2021/08/02 05:00:28;;;;;;;1.93;1.37;;;;;23.20;100226.00;;;;2057765;28;20218;-65
2021/08/02 05:01:28;;;;;;;1.80;1.30;;;;;23.20;100223.00;;;;2061375;28;20218;-65
2021/08/02 05:02:28;;;;;;;1.90;1.60;;;;;23.20;100218.00;;;;2061048;28;20214;-65
2021/08/02 05:03:29;;;;;;;1.90;1.33;;;;;23.20;100221.00;;;;2060362;28;20211;-65
2021/08/02 05:04:29;;;;;;;2.40;1.20;;;;;23.20;100225.00;;;;2059479;28;20370;-65
2021/08/02 05:05:29;;;;;;;1.90;1.30;;;;;23.20;100226.00;;;;2059528;28;20221;-65
2021/08/02 05:06:30;;;;;;;2.33;1.10;;;;;23.20;100222.00;;;;2059046;28;20222;-65
2021/08/02 05:07:30;;;;;;;1.53;1.10;;;;;23.20;100231.00;;;;2058824;28;20250;-65
2021/08/02 05:08:31;;;;;;;1.27;0.90;;;;;23.20;100228.00;;;;2058672;28;20631;-65
2021/08/02 05:09:31;;;;;;;1.50;1.40;;;;;23.20;100231.00;;;;2058800;28;20215;-65